Time;durP1;ratioP1;P1;durP2;ratioP2;P2;SDS_P1;SDS_P2;PMS_P1;PMS_P2;Temp;Humidity;BMP_temperature;BMP_pressure;BME280_temperature;BME280_humidity;BME280_pressure;Samples;Min_cycle;Max_cycle;Signal;HPM_P1;HPM_P2
2022/01/10 00:02:04;;;;;;;80.00;27.10;;;;;;;6.68;100.00;97830.13;4956885;29;20188;-86
2022/01/10 00:04:30;;;;;;;88.77;28.83;;;;;;;5.54;100.00;97627.81;4956927;29;20643;-88
2022/01/10 00:06:58;;;;;;;77.90;26.43;;;;;;;7.14;100.00;97891.25;4940639;29;20177;-87
2022/01/10 00:09:24;;;;;;;76.73;26.40;;;;;;;7.54;100.00;97939.53;4956012;29;20192;-87
2022/01/10 00:11:50;;;;;;;76.33;27.33;;;;;;;6.42;100.00;97769.81;4939989;29;20534;-88
2022/01/10 00:14:16;;;;;;;79.73;28.00;;;;;;;6.01;100.00;97694.72;4940022;29;20176;-87
2022/01/10 00:16:41;;;;;;;70.20;25.97;;;;;;;5.62;100.00;97608.84;4940052;29;20408;-87
2022/01/10 00:19:07;;;;;;;80.30;26.47;;;;;;;7.64;100.00;97944.03;4956649;29;20282;-87
2022/01/10 00:21:33;;;;;;;81.53;27.13;;;;;;;6.30;100.00;97731.72;4939716;29;20200;-89
2022/01/10 00:23:58;;;;;;;87.47;26.93;;;;;;;5.75;100.00;97630.19;4940036;29;20231;-87
2022/01/10 00:26:24;;;;;;;77.47;27.23;;;;;;;7.61;100.00;97954.00;4956047;29;20279;-88
2022/01/10 00:28:50;;;;;;;80.67;25.67;;;;;;;6.86;100.00;97818.19;4956441;29;20180;-87
2022/01/10 00:31:15;;;;;;;78.33;25.70;;;;;;;6.71;100.00;97778.31;4955363;29;20180;-88
2022/01/10 00:33:41;;;;;;;77.63;25.60;;;;;;;5.93;100.00;97626.66;4940600;29;20606;-87
2022/01/10 00:36:08;;;;;;;73.67;24.67;;;;;;;7.80;100.00;97952.91;4959548;29;20267;-86
2022/01/10 00:38:33;;;;;;;71.30;25.43;;;;;;;7.69;100.00;97955.09;4957001;29;20189;-86
2022/01/10 00:41:00;;;;;;;83.93;27.10;;;;;;;7.69;100.00;97947.53;4959500;29;20188;-87
2022/01/10 00:43:34;;;;;;;78.33;26.37;;;;;;;6.02;100.00;97663.78;4957703;29;20572;-87
2022/01/10 00:46:01;;;;;;;88.60;29.50;;;;;;;7.63;100.00;97944.84;4939614;29;20244;-87
2022/01/10 00:48:26;;;;;;;88.13;28.40;;;;;;;7.52;100.00;97931.06;4955019;29;20604;-87
2022/01/10 00:50:52;;;;;;;74.77;26.63;;;;;;;7.36;100.00;97886.06;4956708;29;20168;-87
2022/01/10 00:53:18;;;;;;;88.43;29.03;;;;;;;7.59;100.00;97932.97;4959054;29;20264;-86
2022/01/10 00:55:43;;;;;;;89.03;28.77;;;;;;;6.37;100.00;97743.66;4939204;29;20188;-87
2022/01/10 00:58:09;;;;;;;87.97;27.93;;;;;;;6.19;100.00;97702.88;4956065;29;20183;-86
2022/01/10 01:00:34;;;;;;;83.90;27.63;;;;;;;7.09;100.00;97827.31;4956444;28;20631;-86
2022/01/10 01:03:00;;;;;;;81.30;26.77;;;;;;;7.33;100.00;97868.38;4955477;29;20220;-88
2022/01/10 01:05:27;;;;;;;90.10;28.47;;;;;;;7.68;100.00;97920.66;4954541;29;20215;-87
2022/01/10 01:07:54;;;;;;;86.70;27.67;;;;;;;7.69;100.00;97914.81;4954946;29;20293;-86
2022/01/10 01:13:32;;;;;;;81.93;27.33;;;;;;;7.79;100.00;97905.03;4956530;29;20175;-87
2022/01/10 01:24:09;;;;;;;62.30;23.10;;;;;;;7.59;100.00;97895.19;4898209;29;20232;-88
2022/01/10 01:26:40;;;;;;;62.33;24.17;;;;;;;7.67;100.00;97896.28;4899266;29;20202;-87
2022/01/10 01:29:08;;;;;;;69.87;24.87;;;;;;;7.64;100.00;97893.66;4897117;29;20191;-87
2022/01/10 01:31:34;;;;;;;71.60;25.33;;;;;;;7.63;100.00;97889.47;4881792;29;20210;-87
2022/01/10 01:34:00;;;;;;;76.93;26.50;;;;;;;7.65;100.00;97892.88;4898246;29;20171;-87
2022/01/10 01:36:29;;;;;;;75.83;26.53;;;;;;;7.40;100.00;97835.03;4909345;29;20258;-84
2022/01/10 01:38:56;;;;;;;77.33;27.03;;;;;;;7.66;100.00;97879.44;4903944;29;20190;-88
2022/01/10 01:43:53;;;;;;;87.63;27.63;;;;;;;7.59;100.00;97882.59;4902776;29;20264;-87
2022/01/10 01:46:19;;;;;;;84.80;28.27;;;;;;;7.72;100.00;97879.66;4904017;29;20227;-87
2022/01/10 01:48:46;;;;;;;84.03;26.33;;;;;;;6.92;100.00;97776.47;4906050;29;20211;-87
2022/01/10 01:51:14;;;;;;;71.33;25.53;;;;;;;7.63;100.00;97879.38;4904572;29;20278;-86
2022/01/10 01:53:39;;;;;;;77.10;26.10;;;;;;;5.86;100.00;97563.63;4904618;29;20198;-88
2022/01/10 01:56:08;;;;;;;76.40;25.80;;;;;;;7.84;100.00;97873.25;4896902;29;20581;-87
2022/01/10 01:58:38;;;;;;;66.30;24.33;;;;;;;7.19;100.00;97766.44;4945619;29;20192;-86
2022/01/10 02:01:05;;;;;;;72.90;24.47;;;;;;;7.76;100.00;97870.53;4963784;29;20181;-87
2022/01/10 02:03:37;;;;;;;65.50;24.17;;;;;;;7.34;100.00;97829.78;4965034;29;20196;-86
2022/01/10 02:06:06;;;;;;;67.90;24.53;;;;;;;7.41;100.00;97825.81;4964069;29;20173;-87
2022/01/10 02:08:33;;;;;;;70.03;23.63;;;;;;;6.82;100.00;97740.94;4958929;29;20192;-87
2022/01/10 02:10:59;;;;;;;65.63;23.37;;;;;;;7.63;100.00;97873.50;4961033;29;20252;-87
2022/01/10 02:13:26;;;;;;;69.27;23.63;;;;;;;7.56;100.00;97874.09;4946566;29;20204;-86
2022/01/10 02:15:59;;;;;;;65.67;23.63;;;;;;;7.48;100.00;97878.91;4948059;29;20717;-86
2022/01/10 02:18:28;;;;;;;67.80;23.93;;;;;;;7.10;100.00;97783.75;4965747;29;20156;-87
2022/01/10 02:20:57;;;;;;;73.73;24.40;;;;;;;7.54;100.00;97879.09;4963034;29;20264;-87
2022/01/10 02:23:25;;;;;;;74.57;25.20;;;;;;;6.27;100.00;97676.34;4962371;29;20203;-87
2022/01/10 02:25:50;;;;;;;76.70;24.97;;;;;;;6.25;100.00;97655.34;4958745;29;20244;-86
2022/01/10 02:28:15;;;;;;;69.00;23.33;;;;;;;7.65;100.00;97879.41;4959710;29;20589;-87
2022/01/10 02:30:41;;;;;;;74.03;25.20;;;;;;;7.43;100.00;97874.53;4964778;29;20188;-87
2022/01/10 02:33:07;;;;;;;77.93;25.53;;;;;;;7.20;100.00;97871.28;4964641;29;20176;-87
2022/01/10 02:36:06;;;;;;;74.43;25.17;;;;;;;7.29;100.00;97871.59;4963166;29;20184;-88
2022/01/10 02:38:32;;;;;;;72.50;24.63;;;;;;;7.22;100.00;97877.25;4965045;29;20196;-87
2022/01/10 02:40:59;;;;;;;74.63;24.57;;;;;;;4.86;100.00;97467.44;4964975;29;20176;-87
2022/01/10 02:43:24;;;;;;;66.17;24.30;;;;;;;6.84;100.00;97779.56;4945339;29;20201;-87
2022/01/10 02:45:50;;;;;;;72.17;23.97;;;;;;;5.46;100.00;97576.50;4963035;29;20693;-87
2022/01/10 02:48:15;;;;;;;72.67;24.53;;;;;;;5.96;100.00;97645.16;4964376;29;20311;-86
2022/01/10 02:50:41;;;;;;;68.17;24.60;;;;;;;5.27;100.00;97514.81;4958990;29;20157;-87
2022/01/10 02:53:06;;;;;;;75.07;23.70;;;;;;;6.07;100.00;97639.66;4941974;29;20263;-87
2022/01/10 02:55:32;;;;;;;70.33;24.80;;;;;;;7.53;100.00;97866.44;4940604;29;20657;-88
2022/01/10 02:57:58;;;;;;;65.73;23.80;;;;;;;7.55;100.00;97865.69;4956043;28;20192;-87
2022/01/10 03:00:26;;;;;;;67.80;23.87;;;;;;;4.47;100.00;97364.19;4956393;29;20197;-86
2022/01/10 03:02:54;;;;;;;68.20;23.33;;;;;;;7.41;100.00;97871.13;4957539;29;20201;-87
2022/01/10 03:05:22;;;;;;;65.80;23.80;;;;;;;4.86;100.00;97429.84;4957758;29;20164;-86
2022/01/10 03:07:50;;;;;;;70.50;24.27;;;;;;;5.71;100.00;97568.97;4957337;29;20185;-86
2022/01/10 03:10:15;;;;;;;71.47;24.17;;;;;;;7.72;100.00;97856.97;4956090;29;20180;-86
2022/01/10 03:12:41;;;;;;;72.63;23.73;;;;;;;5.91;100.00;97552.94;4957345;29;20196;-87
2022/01/10 03:15:08;;;;;;;79.17;27.53;;;;;;;7.56;100.00;97822.09;4956104;29;20649;-87
2022/01/10 03:17:35;;;;;;;66.20;23.73;;;;;;;7.34;100.00;97786.16;4957200;29;20180;-88
2022/01/10 03:20:02;;;;;;;63.60;23.53;;;;;;;6.61;100.00;97655.63;4956518;29;20176;-86
2022/01/10 03:22:27;;;;;;;71.10;24.30;;;;;;;7.75;100.00;97865.47;4939728;29;20196;-87
2022/01/10 03:24:54;;;;;;;69.33;24.43;;;;;;;7.66;100.00;97869.38;4956047;29;20187;-88
2022/01/10 03:27:19;;;;;;;72.77;24.57;;;;;;;5.96;100.00;97595.75;4956367;29;20191;-87
2022/01/10 03:29:45;;;;;;;72.13;24.43;;;;;;;6.11;100.00;97633.94;4957098;29;20169;-86
2022/01/10 03:32:12;;;;;;;78.30;24.50;;;;;;;7.63;100.00;97869.31;4955630;29;20263;-88
2022/01/10 03:34:38;;;;;;;65.93;24.30;;;;;;;7.75;100.00;97878.06;4956520;29;20168;-86
2022/01/10 03:37:06;;;;;;;60.63;22.83;;;;;;;7.77;100.00;97871.38;4958223;29;20180;-86
2022/01/10 03:39:32;;;;;;;66.70;23.10;;;;;;;7.51;100.00;97823.63;4940698;29;20700;-86
2022/01/10 03:41:58;;;;;;;64.60;22.87;;;;;;;7.80;100.00;97881.56;4942874;29;20176;-86
2022/01/10 03:44:23;;;;;;;70.13;26.47;;;;;;;7.21;100.00;97784.94;4957484;29;20169;-88
2022/01/10 03:46:49;;;;;;;69.87;24.93;;;;;;;7.58;100.00;97844.81;4958263;29;20299;-86
2022/01/10 03:49:14;;;;;;;68.90;24.00;;;;;;;6.59;100.00;97681.53;4956820;29;20248;-87
2022/01/10 03:51:41;;;;;;;60.80;22.17;;;;;;;6.05;100.00;97601.09;4939961;29;20184;-86
2022/01/10 03:54:07;;;;;;;67.60;24.33;;;;;;;6.57;100.00;97689.03;4940158;29;20188;-87
2022/01/10 03:56:32;;;;;;;68.90;24.90;;;;;;;5.99;100.00;97590.84;4956381;29;20192;-87
2022/01/10 03:58:58;;;;;;;71.17;26.17;;;;;;;5.98;100.00;97594.19;4956538;29;20627;-86
2022/01/10 04:01:24;;;;;;;68.23;24.97;;;;;;;7.75;100.00;97913.31;4954965;29;20220;-87
2022/01/10 04:03:49;;;;;;;67.97;24.67;;;;;;;7.24;100.00;97832.84;4939756;29;20207;-87
2022/01/10 04:06:15;;;;;;;64.37;24.43;;;;;;;6.44;100.00;97677.72;4956843;29;20595;-87
2022/01/10 04:08:41;;;;;;;67.13;24.40;;;;;;;7.84;100.00;97908.53;4938362;29;20291;-87
2022/01/10 04:11:06;;;;;;;71.93;25.47;;;;;;;5.98;100.00;97596.69;4956454;29;20184;-87
2022/01/10 04:13:32;;;;;;;62.57;23.10;;;;;;;7.76;100.00;97920.03;4955121;29;20199;-87
2022/01/10 04:15:57;;;;;;;68.37;22.40;;;;;;;5.98;100.00;97611.75;4938804;29;20185;-87
2022/01/10 04:18:23;;;;;;;67.53;23.67;;;;;;;6.91;100.00;97763.84;4956380;29;20169;-87
2022/01/10 04:20:49;;;;;;;61.60;22.47;;;;;;;6.29;100.00;97628.66;4956262;29;20540;-87
2022/01/10 04:23:16;;;;;;;63.63;24.27;;;;;;;7.51;100.00;97856.34;4939152;29;20284;-87
2022/01/10 04:25:43;;;;;;;64.47;23.10;;;;;;;7.50;100.00;97857.13;4936268;29;20708;-88
2022/01/10 04:28:10;;;;;;;66.13;22.73;;;;;;;7.81;100.00;97916.84;4936267;29;20193;-86
2022/01/10 04:30:36;;;;;;;119.77;44.67;;;;;;;7.85;100.00;97890.09;4936453;29;20166;-87
2022/01/10 04:33:03;;;;;;;73.00;26.23;;;;;;;6.93;100.00;97742.13;4936934;29;20272;-88
2022/01/10 04:35:30;;;;;;;69.97;25.90;;;;;;;7.26;100.00;97798.50;4920282;29;20199;-87
2022/01/10 04:37:55;;;;;;;68.87;26.00;;;;;;;8.13;100.00;97948.91;4937773;29;20276;-87
2022/01/10 04:40:23;;;;;;;201.60;60.57;;;;;;;6.36;100.00;97643.13;4940481;29;20248;-87
2022/01/10 04:42:49;;;;;;;152.63;52.77;;;;;;;7.27;100.00;97797.72;4938279;29;20200;-86
2022/01/10 04:45:16;;;;;;;97.00;34.57;;;;;;;7.96;100.00;97924.03;4938837;29;20177;-86
2022/01/10 04:47:44;;;;;;;78.67;29.63;;;;;;;7.99;100.00;97909.88;4936651;29;20235;-87
2022/01/10 04:52:49;;;;;;;72.67;25.87;;;;;;;7.40;100.00;97806.47;4936995;29;20169;-87
2022/01/10 04:55:15;;;;;;;66.50;24.77;;;;;;;6.40;100.00;97644.94;4919363;29;20200;-87
2022/01/10 04:57:43;;;;;;;75.33;26.50;;;;;;;7.69;100.00;97853.53;4936842;29;20161;-86
2022/01/10 05:00:12;;;;;;;75.43;26.87;;;;;;;7.63;100.00;97856.72;4934978;29;20201;-87
2022/01/10 05:02:40;;;;;;;77.17;27.90;;;;;;;7.77;100.00;97899.94;4934793;29;20211;-87
2022/01/10 05:05:06;;;;;;;84.20;29.87;;;;;;;6.73;100.00;97685.34;4935404;29;20232;-87
2022/01/10 05:07:33;;;;;;;80.37;28.33;;;;;;;8.17;100.00;97929.69;4935714;29;20731;-86
2022/01/10 05:09:58;;;;;;;79.63;27.67;;;;;;;7.62;100.00;97877.66;4935198;29;20192;-87
2022/01/10 05:12:26;;;;;;;78.80;29.57;;;;;;;7.98;100.00;97937.50;4935026;29;20260;-87
2022/01/10 05:14:52;;;;;;;88.80;30.60;;;;;;;6.73;100.00;97766.63;4936446;29;20193;-87
2022/01/10 05:17:20;;;;;;;86.23;29.27;;;;;;;7.94;100.00;97933.22;4935282;29;20189;-87
2022/01/10 05:19:46;;;;;;;76.33;28.37;;;;;;;5.55;100.00;97549.19;4946190;28;20259;-88
2022/01/10 05:22:12;;;;;;;96.17;32.90;;;;;;;8.03;100.00;97931.81;4971091;29;20188;-86
2022/01/10 05:24:37;;;;;;;82.30;31.37;;;;;;;8.04;100.00;97932.66;4950340;29;20610;-87
2022/01/10 05:27:03;;;;;;;81.23;29.93;;;;;;;7.93;100.00;97929.81;4943971;29;20180;-87
2022/01/10 05:29:28;;;;;;;88.10;30.50;;;;;;;7.47;100.00;97854.53;4959564;29;20232;-87
2022/01/10 05:31:55;;;;;;;92.73;31.00;;;;;;;7.96;100.00;97939.13;4934493;29;20181;-87
2022/01/10 05:34:20;;;;;;;84.03;30.67;;;;;;;6.49;100.00;97688.78;4940818;29;20184;-87
2022/01/10 05:36:46;;;;;;;87.17;30.47;;;;;;;7.76;100.00;97894.84;4938871;29;20185;-86
2022/01/10 05:39:12;;;;;;;94.40;33.57;;;;;;;7.76;100.00;97890.66;4941940;29;20185;-87
2022/01/10 05:41:37;;;;;;;84.13;32.70;;;;;;;5.71;100.00;97574.00;4940312;29;20189;-87
2022/01/10 05:44:04;;;;;;;85.60;32.30;;;;;;;7.93;100.00;97919.75;4940948;29;20200;-89
2022/01/10 05:46:30;;;;;;;85.60;29.87;;;;;;;7.35;100.00;97844.09;4940621;29;20176;-87
2022/01/10 05:49:01;;;;;;;88.90;29.50;;;;;;;8.14;100.00;97959.84;4923665;29;20208;-87
2022/01/10 05:51:34;;;;;;;139.97;48.60;;;;;;;7.08;100.00;97797.94;4923252;29;20184;-87
2022/01/10 05:54:03;;;;;;;158.20;54.63;;;;;;;8.12;100.00;97946.34;4938813;29;20181;-86
2022/01/10 05:56:29;;;;;;;234.13;83.17;;;;;;;7.41;100.00;97834.22;4939252;29;20598;-86
2022/01/10 05:58:55;;;;;;;105.23;38.10;;;;;;;8.24;100.00;97955.09;4938453;29;20193;-86
2022/01/10 06:01:20;;;;;;;115.30;42.30;;;;;;;8.29;100.00;97977.97;4940242;29;20187;-87
2022/01/10 06:03:46;;;;;;;82.33;30.10;;;;;;;6.57;100.00;97684.00;4940253;29;20281;-86
2022/01/10 06:06:11;;;;;;;84.60;30.10;;;;;;;7.95;100.00;97919.78;4939300;29;20254;-87
2022/01/10 06:08:38;;;;;;;103.97;38.53;;;;;;;5.94;100.00;97575.63;4949396;29;20189;-87
2022/01/10 06:11:05;;;;;;;103.97;38.57;;;;;;;8.38;100.00;97990.00;4959671;29;20164;-87
2022/01/10 06:13:30;;;;;;;122.87;45.37;;;;;;;6.74;100.00;97725.59;4942357;29;20180;-86
2022/01/10 06:15:56;;;;;;;104.67;36.60;;;;;;;8.05;100.00;97926.78;4941707;29;20195;-86
2022/01/10 06:18:21;;;;;;;111.67;41.03;;;;;;;6.59;100.00;97671.50;4960266;29;20237;-86
2022/01/10 06:20:47;;;;;;;123.00;44.77;;;;;;;8.52;100.00;98014.78;4959218;29;20180;-87
2022/01/10 06:23:13;;;;;;;111.83;38.80;;;;;;;8.52;100.00;97989.56;4958647;29;20196;-87
2022/01/10 06:25:41;;;;;;;102.53;36.03;;;;;;;8.14;100.00;97907.78;4927402;29;20259;-87
2022/01/10 06:28:08;;;;;;;110.90;39.57;;;;;;;8.62;100.00;97986.53;4959237;29;20172;-86
2022/01/10 06:30:36;;;;;;;124.03;41.90;;;;;;;6.95;100.00;97713.69;4930228;29;20176;-86
2022/01/10 06:33:02;;;;;;;120.37;42.60;;;;;;;5.93;100.00;97540.44;4941336;29;20173;-87
2022/01/10 06:35:28;;;;;;;127.17;45.83;;;;;;;8.36;100.00;97951.25;4958364;29;20181;-87
2022/01/10 06:37:54;;;;;;;129.97;49.67;;;;;;;8.53;100.00;98003.03;4957138;29;20181;-86
2022/01/10 06:40:21;;;;;;;103.50;39.23;;;;;;;7.88;100.00;97875.06;4957745;29;20189;-87
2022/01/10 06:42:47;;;;;;;102.97;39.97;;;;;;;6.90;100.00;97719.38;4957003;29;20204;-86
2022/01/10 06:45:13;;;;;;;92.83;36.03;;;;;;;8.66;100.00;98002.59;4958832;29;20560;-87
2022/01/10 06:47:39;;;;;;;94.03;34.73;;;;;;;8.73;100.00;98002.81;4940146;29;20276;-86
2022/01/10 06:50:06;;;;;;;92.17;32.77;;;;;;;5.79;100.00;97516.53;4938425;29;20193;-87
2022/01/10 06:52:32;;;;;;;87.13;32.57;;;;;;;8.56;100.00;97971.22;4940010;29;20268;-87
2022/01/10 06:54:58;;;;;;;87.27;31.97;;;;;;;7.57;100.00;97845.59;4941326;29;20609;-87
2022/01/10 06:57:24;;;;;;;72.23;27.13;;;;;;;8.81;100.00;98010.59;4922776;29;20658;-88
2022/01/10 06:59:51;;;;;;;74.13;27.80;;;;;;;8.85;100.00;98008.19;4914534;29;20212;-87
2022/01/10 07:02:18;;;;;;;72.57;27.20;;;;;;;8.56;100.00;97963.66;4938175;29;20196;-87
2022/01/10 07:04:44;;;;;;;68.97;24.80;;;;;;;7.72;100.00;97815.81;4938656;29;20272;-87
2022/01/10 07:07:10;;;;;;;70.93;26.53;;;;;;;8.85;100.00;97990.53;4938009;29;20169;-86
2022/01/10 07:09:35;;;;;;;78.53;29.33;;;;;;;6.43;100.00;97645.88;4948761;29;20283;-86
2022/01/10 07:12:03;;;;;;;71.70;26.97;;;;;;;8.81;100.00;97988.75;4905819;29;20201;-87
2022/01/10 07:14:31;;;;;;;71.50;25.03;;;;;;;8.48;100.00;97932.31;4939148;29;20165;-87
2022/01/10 07:16:57;;;;;;;68.27;25.00;;;;;;;8.46;100.00;97933.91;4938887;29;20213;-87
2022/01/10 07:19:24;;;;;;;67.43;25.00;;;;;;;9.00;100.00;98015.34;4932976;29;20728;-87
2022/01/10 07:21:50;;;;;;;72.40;25.30;;;;;;;6.82;100.00;97688.13;4953596;29;20207;-86
2022/01/10 07:24:15;;;;;;;70.07;25.33;;;;;;;8.86;100.00;98016.63;4958566;29;20704;-86
2022/01/10 07:26:41;;;;;;;73.70;25.53;;;;;;;7.99;100.00;97869.53;4958879;29;20184;-87
2022/01/10 07:29:08;;;;;;;75.83;26.73;;;;;;;8.14;100.00;97885.09;4956532;29;20188;-88
2022/01/10 07:31:35;;;;;;;83.97;27.47;;;;;;;8.97;100.00;98019.44;4938313;29;20169;-87
2022/01/10 07:34:01;;;;;;;82.03;27.63;;;;;;;9.00;100.00;98025.44;4922194;29;20177;-86
2022/01/10 07:36:26;;;;;;;72.63;26.90;;;;;;;8.98;100.00;98027.06;4923473;29;20185;-87
2022/01/10 07:38:54;;;;;;;80.67;27.13;;;;;;;7.65;100.00;97829.91;4940999;29;20193;-87
2022/01/10 07:41:20;;;;;;;97.50;33.90;;;;;;;9.04;100.00;98026.38;4944036;29;20661;-86
2022/01/10 07:43:48;;;;;;;85.33;27.60;;;;;;;8.78;100.00;98029.03;4921706;29;20202;-87
2022/01/10 07:46:13;;;;;;;94.93;31.70;;;;;;;8.41;100.00;97945.53;4938769;29;20168;-87
2022/01/10 07:48:41;;;;;;;90.43;32.03;;;;;;;8.84;100.00;98028.34;4895531;29;20237;-85
2022/01/10 07:51:09;;;;;;;94.20;30.97;;;;;;;8.39;100.00;97929.53;4952437;29;20197;-87
2022/01/10 07:53:36;;;;;;;92.57;32.23;;;;;;;9.04;100.00;98024.69;4955715;29;20216;-87
2022/01/10 07:56:04;;;;;;;95.33;34.17;;;;;;;8.82;100.00;97990.44;4957825;29;20574;-87
2022/01/10 07:58:31;;;;;;;82.83;28.23;;;;;;;9.04;100.00;98039.00;4956121;29;20669;-88
2022/01/10 08:00:58;;;;;;;80.47;28.33;;;;;;;8.96;100.00;98035.38;4940945;29;20193;-87
2022/01/10 08:03:24;;;;;;;86.13;28.20;;;;;;;8.93;100.00;98035.31;4962272;29;20211;-85
2022/01/10 08:05:50;;;;;;;82.43;27.73;;;;;;;6.91;100.00;97690.91;4958990;29;20188;-87
2022/01/10 08:08:17;;;;;;;78.20;26.03;;;;;;;9.09;100.00;98045.03;4949566;29;20188;-88
2022/01/10 08:10:42;;;;;;;77.30;26.60;;;;;;;6.54;100.00;97621.06;4958366;29;20203;-87
2022/01/10 08:13:08;;;;;;;71.87;25.90;;;;;;;7.78;100.00;97833.63;4955891;28;20260;-87
2022/01/10 08:15:34;;;;;;;72.50;25.30;;;;;;;9.01;100.00;98034.69;4956542;29;20274;-87
2022/01/10 08:18:01;;;;;;;77.47;26.10;;;;;;;8.93;100.00;98042.91;4957153;29;20288;-88
2022/01/10 08:20:26;;;;;;;78.63;26.17;;;;;;;8.95;100.00;98034.56;4941095;29;20184;-88
2022/01/10 08:22:55;;;;;;;107.03;39.23;;;;;;;8.80;100.00;98042.53;4957140;29;20232;-88
2022/01/10 08:25:21;;;;;;;87.57;28.93;;;;;;;6.93;100.00;97727.03;4940757;29;20728;-88
2022/01/10 08:27:46;;;;;;;85.40;28.47;;;;;;;8.72;100.00;98050.69;4941628;29;20207;-87
2022/01/10 08:30:12;;;;;;;78.27;28.33;;;;;;;8.78;100.00;98039.13;4943556;29;20393;-88
2022/01/10 08:32:37;;;;;;;83.03;30.27;;;;;;;8.49;100.00;97997.06;4946066;29;20219;-87
2022/01/10 08:35:04;;;;;;;82.83;30.10;;;;;;;8.92;100.00;98031.06;4924795;29;20270;-87
2022/01/10 08:37:30;;;;;;;90.07;27.50;;;;;;;8.40;100.00;97966.56;4958628;28;20192;-87
2022/01/10 08:39:57;;;;;;;79.47;26.87;;;;;;;8.87;100.00;98041.06;4942045;29;20635;-87
2022/01/10 08:42:26;;;;;;;90.10;29.90;;;;;;;7.38;100.00;97755.25;4942152;29;20578;-87
2022/01/10 08:44:52;;;;;;;80.73;29.87;;;;;;;7.52;100.00;97780.00;4940634;29;20173;-87
2022/01/10 08:47:18;;;;;;;87.43;29.30;;;;;;;7.14;100.00;97766.25;4956222;28;20278;-88
2022/01/10 08:49:43;;;;;;;85.27;31.07;;;;;;;8.91;100.00;98035.25;4961023;29;20296;-87
2022/01/10 08:52:09;;;;;;;90.63;30.77;;;;;;;6.69;100.00;97663.41;4958853;29;20189;-87
2022/01/10 08:54:34;;;;;;;99.83;33.17;;;;;;;8.52;100.00;97979.50;4956684;28;20243;-87
2022/01/10 08:57:02;;;;;;;98.37;34.57;;;;;;;7.66;100.00;97808.94;4939861;29;20271;-86
2022/01/10 08:59:28;;;;;;;96.80;34.60;;;;;;;8.88;100.00;98041.09;4937780;29;20180;-87
2022/01/10 09:01:55;;;;;;;218.40;77.57;;;;;;;8.16;100.00;97930.47;4955760;29;20173;-87
2022/01/10 09:04:21;;;;;;;123.97;42.20;;;;;;;8.01;100.00;97898.16;4956404;29;20216;-86
2022/01/10 09:06:50;;;;;;;357.67;129.10;;;;;;;8.42;100.00;97966.56;4956794;29;20188;-86
2022/01/10 09:09:18;;;;;;;121.07;42.90;;;;;;;7.14;100.00;97717.63;4936859;29;20181;-87
2022/01/10 09:11:44;;;;;;;285.30;105.17;;;;;;;8.52;100.00;97908.00;4922719;29;20189;-86
2022/01/10 09:14:10;;;;;;;246.10;84.80;;;;;;;8.95;100.00;98026.13;4946668;29;20228;-88
2022/01/10 09:16:41;;;;;;;203.00;75.80;;;;;;;7.45;100.00;97813.34;4940325;29;20188;-87
2022/01/10 09:19:07;;;;;;;127.90;46.27;;;;;;;8.75;100.00;98023.03;4957234;29;20539;-87
2022/01/10 09:21:33;;;;;;;104.20;39.80;;;;;;;8.50;100.00;97958.41;4923382;29;20184;-87
2022/01/10 09:24:00;;;;;;;148.50;54.20;;;;;;;8.67;100.00;98015.25;4955983;29;20204;-86
2022/01/10 09:26:26;;;;;;;297.63;121.57;;;;;;;7.36;100.00;97777.00;4938975;29;20233;-87
2022/01/10 09:28:53;;;;;;;262.97;108.57;;;;;;;8.87;100.00;98016.66;4956025;29;20180;-86
2022/01/10 09:31:20;;;;;;;102.57;39.77;;;;;;;8.86;100.00;98021.66;4955077;29;20184;-87
2022/01/10 09:33:52;;;;;;;139.07;62.17;;;;;;;6.43;100.00;97618.22;4938620;29;20200;-87
2022/01/10 09:36:18;;;;;;;98.97;37.57;;;;;;;8.80;100.00;98014.78;4938787;29;20580;-87
2022/01/10 09:38:44;;;;;;;94.93;36.00;;;;;;;8.62;100.00;97970.53;4936459;29;20168;-87
2022/01/10 09:41:09;;;;;;;101.10;37.37;;;;;;;8.89;100.00;98007.47;4919482;29;20201;-87
2022/01/10 09:43:35;;;;;;;92.43;34.70;;;;;;;8.34;100.00;97923.50;4950530;28;20223;-87
2022/01/10 09:46:00;;;;;;;89.10;35.57;;;;;;;8.71;100.00;97961.53;4962603;29;20276;-87
2022/01/10 09:48:26;;;;;;;85.20;33.17;;;;;;;8.97;100.00;98024.47;4927181;29;20244;-87
2022/01/10 09:50:51;;;;;;;82.13;32.63;;;;;;;8.72;100.00;97948.13;4953203;29;20196;-86
2022/01/10 09:53:21;;;;;;;85.23;33.50;;;;;;;9.21;100.00;98000.75;4955007;29;20204;-88
2022/01/10 09:55:48;;;;;;;98.07;42.43;;;;;;;8.45;100.00;97894.41;4938023;29;20181;-88
2022/01/10 09:58:13;;;;;;;108.43;43.23;;;;;;;9.18;100.00;98007.38;4954278;29;20243;-87
2022/01/10 10:00:40;;;;;;;124.17;55.13;;;;;;;7.73;100.00;97774.72;4937270;29;20188;-88
2022/01/10 10:03:08;;;;;;;128.17;58.67;;;;;;;7.39;100.00;97681.44;4956521;29;20201;-87
2022/01/10 10:05:34;;;;;;;74.97;32.40;;;;;;;8.43;100.00;97850.66;4940291;28;20189;-87
2022/01/10 10:08:00;;;;;;;79.07;36.00;;;;;;;9.21;100.00;98010.00;4935863;29;20276;-87
2022/01/10 10:10:29;;;;;;;74.03;32.67;;;;;;;9.15;100.00;97970.28;4920696;29;20213;-87
2022/01/10 10:12:54;;;;;;;64.00;28.43;;;;;;;9.23;100.00;97998.28;4928817;29;20250;-87
2022/01/10 10:15:28;;;;;;;62.50;26.43;;;;;;;8.28;100.00;97883.00;4931557;29;20275;-88
2022/01/10 10:17:54;;;;;;;69.63;31.50;;;;;;;8.58;100.00;97888.88;4922888;29;20185;-87
2022/01/10 10:20:23;;;;;;;60.83;27.63;;;;;;;9.10;100.00;97994.56;4938557;29;20277;-86
2022/01/10 10:22:51;;;;;;;96.73;42.57;;;;;;;9.18;100.00;97994.75;4923374;29;20337;-86
2022/01/10 10:25:17;;;;;;;81.60;35.87;;;;;;;6.90;100.00;97638.91;4940649;29;20623;-86
2022/01/10 10:27:45;;;;;;;87.90;39.37;;;;;;;6.39;100.00;97553.63;4941240;29;20180;-85
2022/01/10 10:30:20;;;;;;;69.50;31.90;;;;;;;9.09;100.00;98010.50;4957867;29;20554;-86
2022/01/10 10:32:47;;;;;;;57.40;26.13;;;;;;;8.97;100.00;97999.25;4938683;29;20180;-87
2022/01/10 10:35:14;;;;;;;58.50;27.77;;;;;;;8.49;100.00;97934.00;4942546;29;20203;-86
2022/01/10 10:37:43;;;;;;;54.73;25.43;;;;;;;8.96;100.00;97993.34;4972033;29;20216;-85
2022/01/10 10:40:14;;;;;;;48.97;23.37;;;;;;;8.96;100.00;97998.38;4966345;29;20263;-86
2022/01/10 10:42:41;;;;;;;56.37;25.23;;;;;;;9.03;100.00;98017.09;4957654;29;20234;-87
2022/01/10 10:45:10;;;;;;;56.17;25.43;;;;;;;7.85;100.00;97775.09;4924821;29;20177;-87
2022/01/10 10:47:40;;;;;;;52.73;24.73;;;;;;;8.68;100.00;97918.56;4911770;29;20230;-85
2022/01/10 10:50:07;;;;;;;52.23;24.10;;;;;;;7.58;100.00;97718.91;4923993;29;20178;-86
2022/01/10 10:52:38;;;;;;;62.53;28.03;;;;;;;9.14;100.00;97972.78;4918531;29;20189;-86
2022/01/10 10:55:07;;;;;;;79.77;35.77;;;;;;;9.18;100.00;97997.28;4919687;29;20170;-87
2022/01/10 10:57:33;;;;;;;55.13;25.80;;;;;;;8.21;100.00;97823.94;4918993;29;20193;-85
2022/01/10 11:00:00;;;;;;;57.33;27.10;;;;;;;9.19;100.00;97996.47;4919082;29;20182;-86
2022/01/10 11:02:27;;;;;;;64.60;28.90;;;;;;;9.21;100.00;97997.38;4917968;29;20674;-87
2022/01/10 11:05:01;;;;;;;54.30;24.80;;;;;;;9.12;100.00;97992.09;4919857;29;20248;-86
2022/01/10 11:07:31;;;;;;;52.80;25.40;;;;;;;8.04;100.00;97812.56;4918975;29;20690;-85
2022/01/10 11:09:57;;;;;;;52.10;25.90;;;;;;;9.17;100.00;97988.88;4903473;29;20167;-86
2022/01/10 11:12:24;;;;;;;53.97;26.00;;;;;;;9.09;100.00;98000.41;4903831;29;20980;-85
2022/01/10 11:14:52;;;;;;;51.43;23.00;;;;;;;7.89;100.00;97803.72;4904525;29;20288;-86
2022/01/10 11:17:20;;;;;;;53.97;24.03;;;;;;;8.81;100.00;97930.72;4920019;29;20311;-87
2022/01/10 11:20:07;;;;;;;55.87;23.23;;;;;;;8.69;100.00;97925.34;4903179;29;20631;-86
2022/01/10 11:22:35;;;;;;;50.67;22.10;;;;;;;8.20;100.00;97836.53;4919213;29;20690;-86
2022/01/10 11:25:02;;;;;;;45.33;20.73;;;;;;;8.15;100.00;97840.59;4919739;29;20209;-86
2022/01/10 11:27:43;;;;;;;50.73;21.80;;;;;;;8.41;100.00;97866.53;4920711;29;20166;-87
2022/01/10 11:30:31;;;;;;;51.07;21.90;;;;;;;9.35;100.00;97988.50;4923761;29;20174;-88
2022/01/10 11:33:07;;;;;;;51.37;21.43;;;;;;;9.39;100.00;97992.81;4921788;29;20189;-86